createdAt,value
2019-04-29T00:00:12.814Z,9.50
2019-04-29T00:03:18.688Z,8.50
2019-04-29T00:06:20.638Z,8.13
2019-04-29T00:09:23.862Z,8.27
2019-04-29T00:12:27.665Z,9.20
2019-04-29T00:15:40.425Z,9.10
2019-04-29T00:19:00.957Z,7.40
2019-04-29T00:22:03.188Z,7.63
2019-04-29T00:25:05.249Z,8.07
2019-04-29T00:28:07.294Z,9.10
2019-04-29T00:31:09.197Z,8.77
2019-04-29T00:34:11.093Z,8.60
2019-04-29T00:37:24.090Z,8.80
2019-04-29T00:40:44.422Z,8.03
2019-04-29T00:43:48.224Z,8.67
2019-04-29T00:46:50.583Z,9.00
2019-04-29T00:49:52.518Z,8.27
2019-04-29T00:52:54.417Z,8.40
2019-04-29T00:55:56.277Z,8.00
2019-04-29T00:58:58.296Z,10.23
2019-04-29T01:02:00.176Z,10.43
2019-04-29T01:05:05.387Z,9.40
2019-04-29T01:08:07.303Z,9.33
2019-04-29T01:11:09.219Z,9.73
2019-04-29T01:14:11.087Z,8.63
2019-04-29T01:17:12.972Z,8.90
2019-04-29T01:20:14.947Z,8.23
2019-04-29T01:23:16.815Z,8.23
2019-04-29T01:26:26.431Z,8.70
2019-04-29T01:29:30.265Z,8.97
2019-04-29T01:32:32.274Z,8.20
2019-04-29T01:35:34.191Z,8.53
2019-04-29T01:38:36.078Z,8.13
2019-04-29T01:41:48.482Z,8.90
2019-04-29T01:44:50.445Z,9.03
2019-04-29T01:47:52.416Z,9.13
2019-04-29T01:50:54.368Z,10.23
2019-04-29T01:53:56.330Z,9.47
2019-04-29T01:56:58.224Z,9.53
2019-04-29T02:00:00.244Z,10.10
2019-04-29T02:03:02.133Z,8.97
2019-04-29T02:06:04.363Z,10.07
2019-04-29T02:09:10.261Z,8.70
2019-04-29T02:12:12.294Z,9.63
2019-04-29T02:15:14.324Z,9.67
2019-04-29T02:18:16.297Z,9.07
2019-04-29T02:21:18.239Z,9.00
2019-04-29T02:24:20.425Z,10.33
2019-04-29T02:27:22.413Z,8.87
2019-04-29T02:30:33.999Z,8.77
2019-04-29T02:33:35.914Z,10.67
2019-04-29T02:36:38.226Z,9.37
2019-04-29T02:39:48.100Z,10.83
2019-04-29T02:42:51.763Z,10.37
2019-04-29T02:45:53.739Z,10.73
2019-04-29T02:48:55.681Z,10.73
2019-04-29T02:51:57.630Z,12.00
2019-04-29T02:55:01.357Z,10.97
2019-04-29T02:58:05.179Z,10.63
2019-04-29T03:01:24.268Z,10.87
2019-04-29T03:04:37.166Z,11.63
2019-04-29T03:07:40.537Z,9.90
2019-04-29T03:10:42.429Z,10.93
2019-04-29T03:13:44.380Z,10.83
2019-04-29T03:16:46.249Z,12.07
2019-04-29T03:20:06.653Z,10.37
2019-04-29T03:23:10.371Z,10.97
2019-04-29T03:26:12.444Z,11.07
2019-04-29T03:29:19.011Z,10.53
2019-04-29T03:32:20.951Z,10.77
2019-04-29T03:35:23.057Z,10.73
2019-04-29T03:38:25.056Z,10.40
2019-04-29T03:41:26.927Z,11.90
2019-04-29T03:44:28.936Z,11.50
2019-04-29T03:47:30.950Z,11.67
2019-04-29T03:50:32.884Z,11.60
2019-04-29T03:53:34.762Z,11.63
2019-04-29T03:56:36.674Z,11.43
2019-04-29T03:59:38.577Z,11.33
2019-04-29T04:02:42.323Z,11.23
2019-04-29T04:05:46.063Z,11.13
2019-04-29T04:09:04.684Z,11.13
2019-04-29T04:11:54.147Z,11.50
2019-04-29T04:14:56.010Z,10.97
2019-04-29T04:17:59.788Z,11.67
2019-04-29T04:21:01.667Z,11.03
2019-04-29T04:24:03.624Z,11.87
2019-04-29T04:27:05.516Z,10.47
2019-04-29T04:30:07.461Z,10.97
2019-04-29T04:33:09.407Z,10.57
2019-04-29T04:36:11.317Z,10.00
2019-04-29T04:39:13.263Z,10.37
2019-04-29T04:42:15.239Z,9.43
2019-04-29T04:45:17.181Z,9.43
2019-04-29T04:48:19.276Z,9.37
2019-04-29T04:51:21.218Z,11.33
2019-04-29T04:54:23.197Z,9.20
2019-04-29T04:57:25.087Z,9.70
2019-04-29T05:00:28.831Z,9.90
2019-04-29T05:03:30.783Z,9.00
2019-04-29T05:06:32.795Z,8.73
2019-04-29T05:09:34.695Z,9.03
2019-04-29T05:12:36.698Z,8.20
2019-04-29T05:15:38.630Z,8.90
2019-04-29T05:18:40.489Z,8.83
2019-04-29T05:21:42.370Z,9.57
2019-04-29T05:24:44.260Z,9.40
2019-04-29T05:27:46.181Z,8.27
2019-04-29T05:30:48.097Z,7.20
2019-04-29T05:33:50.115Z,8.33
2019-04-29T05:36:56.559Z,8.00
2019-04-29T05:39:58.480Z,8.07
2019-04-29T05:43:00.410Z,7.50
2019-04-29T05:46:17.504Z,7.33
2019-04-29T05:49:21.813Z,6.50
2019-04-29T05:52:34.828Z,6.60
2019-04-29T05:55:35.548Z,6.53
2019-04-29T05:58:38.156Z,6.63
2019-04-29T06:01:42.757Z,7.50
2019-04-29T06:04:48.081Z,7.00
2019-04-29T06:07:51.656Z,8.37
2019-04-29T06:10:53.622Z,8.60
2019-04-29T06:13:55.667Z,20.67
2019-04-29T06:17:02.869Z,9.33
2019-04-29T06:20:01.453Z,8.90
2019-04-29T06:23:03.379Z,8.87
2019-04-29T06:26:05.312Z,8.90
2019-04-29T06:29:07.268Z,8.00
2019-04-29T06:32:09.184Z,9.10
2019-04-29T06:35:14.280Z,9.20
2019-04-29T06:38:15.328Z,10.60
2019-04-29T06:41:17.573Z,12.40
2019-04-29T06:44:20.659Z,10.80
2019-04-29T06:47:22.706Z,9.00
2019-04-29T06:50:24.743Z,11.10
2019-04-29T06:53:26.757Z,9.40
2019-04-29T06:56:28.708Z,9.00
2019-04-29T06:59:30.628Z,9.73
2019-04-29T07:02:32.601Z,8.97
2019-04-29T07:05:34.582Z,7.77
2019-04-29T07:08:36.528Z,8.17
2019-04-29T07:11:38.614Z,10.00
2019-04-29T07:14:40.634Z,7.80
2019-04-29T07:17:43.051Z,7.47
2019-04-29T07:20:45.842Z,6.83
2019-04-29T07:23:48.942Z,6.30
2019-04-29T07:26:50.863Z,8.07
2019-04-29T07:29:53.950Z,6.50
2019-04-29T07:32:55.870Z,7.17
2019-04-29T07:36:10.275Z,6.83
2019-04-29T07:39:01.655Z,6.77
2019-04-29T07:42:04.578Z,5.97
2019-04-29T07:45:28.226Z,5.60
2019-04-29T07:48:29.986Z,6.23
2019-04-29T07:51:34.835Z,5.27
2019-04-29T07:54:35.961Z,6.00
2019-04-29T07:57:38.936Z,6.67
2019-04-29T08:00:44.578Z,6.10
2019-04-29T08:03:44.707Z,5.80
2019-04-29T08:06:46.941Z,6.10
2019-04-29T08:09:50.376Z,5.93
2019-04-29T08:12:53.956Z,6.03
2019-04-29T08:15:55.860Z,6.53
2019-04-29T08:18:57.840Z,20.20
2019-04-29T08:21:59.743Z,22.07
2019-04-29T08:25:01.733Z,8.53
2019-04-29T08:28:03.657Z,7.80
2019-04-29T08:31:05.657Z,7.07
2019-04-29T08:34:07.637Z,7.23
2019-04-29T08:37:09.650Z,7.20
2019-04-29T08:40:16.334Z,11.70
2019-04-29T08:43:35.839Z,6.43
2019-04-29T08:46:39.580Z,7.13
2019-04-29T08:49:41.889Z,7.27
2019-04-29T08:52:43.964Z,6.80
2019-04-29T08:55:45.968Z,5.77
2019-04-29T08:58:49.318Z,6.10
2019-04-29T09:01:51.803Z,6.47
2019-04-29T09:04:54.104Z,5.90
2019-04-29T09:07:57.303Z,5.77
2019-04-29T09:11:00.158Z,6.23
2019-04-29T09:14:02.072Z,5.90
2019-04-29T09:17:08.979Z,6.23
2019-04-29T09:20:08.441Z,5.90
2019-04-29T09:23:15.201Z,4.90
2019-04-29T09:26:24.279Z,5.80
2019-04-29T09:29:37.911Z,5.60
2019-04-29T09:32:40.057Z,5.20
2019-04-29T09:35:42.070Z,9.77
2019-04-29T09:38:44.225Z,11.53
2019-04-29T09:41:47.918Z,6.00
2019-04-29T09:45:03.757Z,6.07
2019-04-29T09:48:07.528Z,5.23
2019-04-29T09:51:17.331Z,5.37
2019-04-29T09:54:14.693Z,5.03
2019-04-29T09:57:17.225Z,5.30
2019-04-29T10:00:24.451Z,5.13
2019-04-29T10:03:31.301Z,6.27
2019-04-29T10:06:37.957Z,5.23
2019-04-29T10:09:39.936Z,5.03
2019-04-29T10:12:42.021Z,5.00
2019-04-29T10:15:45.769Z,5.30
2019-04-29T10:18:49.595Z,4.90
2019-04-29T10:21:51.473Z,4.67
2019-04-29T10:24:53.442Z,5.10
2019-04-29T10:27:55.342Z,4.40
2019-04-29T10:30:57.698Z,4.07
2019-04-29T10:33:59.742Z,4.47
2019-04-29T10:37:01.804Z,4.73
2019-04-29T10:40:11.255Z,4.60
2019-04-29T10:43:31.763Z,4.50
2019-04-29T10:46:41.724Z,4.30
2019-04-29T10:49:45.536Z,4.90
2019-04-29T10:52:47.636Z,3.90
2019-04-29T10:55:49.712Z,5.03
2019-04-29T10:58:52.521Z,4.97
2019-04-29T11:02:23.914Z,4.53
2019-04-29T11:05:33.413Z,4.57
2019-04-29T11:08:38.089Z,4.83
2019-04-29T11:11:42.465Z,5.33
2019-04-29T11:14:44.390Z,5.77
2019-04-29T11:17:46.501Z,5.50
2019-04-29T11:20:48.868Z,4.87
2019-04-29T11:23:54.880Z,5.20
2019-04-29T11:27:11.202Z,5.43
2019-04-29T11:30:06.453Z,6.37
2019-04-29T11:33:16.422Z,6.70
2019-04-29T11:36:20.217Z,6.47
2019-04-29T11:39:22.769Z,5.60
2019-04-29T11:42:24.943Z,8.73
2019-04-29T11:45:27.232Z,8.23
2019-04-29T11:48:29.192Z,8.30
2019-04-29T11:51:48.562Z,8.80
2019-04-29T11:54:40.026Z,9.27
2019-04-29T11:57:43.861Z,9.87
2019-04-29T12:01:03.927Z,11.80
2019-04-29T12:04:23.350Z,13.47
2019-04-29T12:07:32.382Z,12.50
2019-04-29T12:10:31.115Z,14.03
2019-04-29T12:13:43.933Z,14.97
2019-04-29T12:16:47.587Z,15.40
2019-04-29T12:19:51.375Z,15.63
2019-04-29T12:22:53.309Z,16.57
2019-04-29T12:25:58.667Z,15.70
2019-04-29T12:28:59.092Z,14.20
2019-04-29T12:32:02.934Z,15.47
2019-04-29T12:35:09.381Z,15.83
2019-04-29T12:38:18.696Z,15.37
2019-04-29T12:41:48.482Z,14.53
2019-04-29T12:44:48.662Z,15.03
2019-04-29T12:47:50.682Z,14.03
2019-04-29T12:50:57.426Z,13.83
2019-04-29T12:53:56.414Z,13.63
2019-04-29T12:56:59.675Z,11.13
2019-04-29T13:00:01.712Z,12.23
2019-04-29T13:03:07.330Z,11.33
2019-04-29T13:06:11.141Z,9.10
2019-04-29T13:09:17.903Z,10.77
2019-04-29T13:12:20.023Z,12.40
2019-04-29T13:15:26.620Z,18.03
2019-04-29T13:18:42.296Z,13.67
2019-04-29T13:21:44.270Z,11.83
2019-04-29T13:24:46.180Z,11.57
2019-04-29T13:27:48.154Z,8.90
2019-04-29T13:30:51.418Z,8.63
2019-04-29T13:33:56.146Z,8.30
2019-04-29T13:37:07.191Z,7.20
2019-04-29T13:40:04.791Z,7.27
2019-04-29T13:43:07.289Z,7.90
2019-04-29T13:46:23.526Z,7.10
2019-04-29T13:49:30.191Z,7.27
2019-04-29T13:52:32.110Z,6.93
2019-04-29T13:55:47.703Z,7.30
2019-04-29T13:58:39.167Z,7.30
2019-04-29T14:01:58.456Z,7.83
2019-04-29T14:05:00.164Z,7.07
2019-04-29T14:08:01.738Z,7.37
2019-04-29T14:11:03.818Z,7.57
2019-04-29T14:14:05.810Z,8.00
2019-04-29T14:17:25.401Z,7.83
2019-04-29T14:20:15.917Z,7.10
2019-04-29T14:23:17.537Z,19.57
2019-04-29T14:26:19.452Z,7.90
2019-04-29T14:29:23.012Z,6.40
2019-04-29T14:32:35.866Z,7.73
2019-04-29T14:35:36.401Z,6.87
2019-04-29T14:38:40.481Z,7.60
2019-04-29T14:41:44.317Z,6.93
2019-04-29T14:44:57.098Z,6.47
2019-04-29T14:48:07.832Z,6.33
2019-04-29T14:51:11.971Z,6.47
2019-04-29T14:54:14.119Z,7.80
2019-04-29T14:57:16.084Z,11.37
2019-04-29T15:00:20.525Z,9.40
2019-04-29T15:03:28.869Z,11.93
2019-04-29T15:06:30.866Z,10.87
2019-04-29T15:09:45.997Z,9.80
2019-04-29T15:13:01.891Z,8.83
2019-04-29T15:16:09.681Z,8.93
2019-04-29T15:19:31.543Z,8.97
2019-04-29T15:22:39.044Z,9.10
2019-04-29T15:25:42.783Z,8.93
2019-04-29T15:28:50.546Z,8.63
2019-04-29T15:31:52.511Z,9.53
2019-04-29T15:34:54.484Z,11.20
2019-04-29T15:37:59.296Z,12.97
2019-04-29T15:41:01.296Z,14.37
2019-04-29T15:44:07.555Z,13.40
2019-04-29T15:47:07.483Z,12.93
2019-04-29T15:50:18.810Z,15.50
2019-04-29T15:53:13.822Z,14.67
2019-04-29T15:56:28.369Z,15.97
2019-04-29T15:59:21.345Z,16.17
2019-04-29T16:02:24.392Z,19.20
2019-04-29T16:06:10.805Z,20.63
2019-04-29T16:08:51.704Z,21.10
2019-04-29T16:12:14.372Z,22.40
2019-04-29T16:15:13.327Z,20.03
2019-04-29T16:18:15.452Z,20.93
2019-04-29T16:21:20.068Z,20.50
2019-04-29T16:24:26.974Z,20.20
2019-04-29T16:27:27.695Z,21.10
2019-04-29T16:30:31.919Z,20.17
2019-04-29T16:33:34.549Z,18.30
2019-04-29T16:36:36.495Z,20.97
2019-04-29T16:39:38.729Z,22.07
2019-04-29T16:42:59.016Z,21.90
2019-04-29T16:46:10.859Z,21.37
2019-04-29T16:49:15.449Z,23.10
2019-04-29T16:52:19.751Z,22.43
2019-04-29T16:55:22.156Z,22.27
2019-04-29T16:58:26.091Z,38.40
2019-04-29T17:01:32.788Z,25.63
2019-04-29T17:04:36.793Z,24.27
2019-04-29T17:07:39.211Z,28.90
2019-04-29T17:10:49.226Z,28.83
2019-04-29T17:13:51.514Z,28.23
2019-04-29T17:16:54.028Z,32.33
2019-04-29T17:19:57.976Z,30.33
2019-04-29T17:23:00.017Z,34.13
2019-04-29T17:26:01.940Z,33.30
2019-04-29T17:29:38.519Z,33.07
2019-04-29T17:32:44.664Z,34.67
2019-04-29T17:35:49.327Z,38.47
2019-04-29T17:38:52.022Z,41.67
2019-04-29T17:41:54.485Z,38.83
2019-04-29T17:44:56.818Z,38.27
2019-04-29T17:48:19.571Z,36.90
2019-04-29T17:51:21.670Z,33.10
2019-04-29T17:54:27.397Z,33.40
2019-04-29T17:57:31.779Z,32.97
2019-04-29T18:00:55.504Z,46.67
2019-04-29T18:03:55.771Z,52.20
2019-04-29T18:07:12.501Z,49.47
2019-04-29T18:10:24.363Z,34.30
2019-04-29T18:13:24.630Z,28.80
2019-04-29T18:16:31.101Z,29.00
2019-04-29T18:19:36.278Z,30.00
2019-04-29T18:22:44.766Z,27.97
2019-04-29T18:26:05.266Z,27.80
2019-04-29T18:29:08.706Z,31.63
2019-04-29T18:32:12.199Z,27.73
2019-04-29T18:35:15.359Z,29.63
2019-04-29T18:38:18.400Z,28.17
2019-04-29T18:41:28.030Z,29.30
2019-04-29T18:44:25.856Z,28.23
2019-04-29T18:47:34.670Z,29.03
2019-04-29T18:50:34.208Z,30.77
2019-04-29T18:53:36.091Z,30.60
2019-04-29T18:56:40.337Z,32.00
2019-04-29T18:59:45.816Z,33.20
2019-04-29T19:02:52.727Z,30.30
2019-04-29T19:05:55.461Z,31.17
2019-04-29T19:09:01.745Z,30.50
2019-04-29T19:12:01.621Z,30.60
2019-04-29T19:15:11.448Z,34.23
2019-04-29T19:18:12.495Z,33.83
2019-04-29T19:21:15.544Z,35.00
2019-04-29T19:24:17.803Z,36.20
2019-04-29T19:27:20.501Z,37.60
2019-04-29T19:30:26.307Z,37.80
2019-04-29T19:33:30.812Z,40.53
2019-04-29T19:36:31.746Z,35.40
2019-04-29T19:39:34.911Z,35.83
2019-04-29T19:42:39.832Z,37.47
2019-04-29T19:45:44.807Z,34.60
2019-04-29T19:48:50.445Z,36.73
2019-04-29T19:51:52.802Z,35.07
2019-04-29T19:54:57.370Z,36.87
2019-04-29T19:58:03.546Z,36.03
2019-04-29T20:01:13.957Z,37.43
2019-04-29T20:04:17.590Z,35.43
2019-04-29T20:07:17.794Z,34.93
2019-04-29T20:10:23.459Z,34.17
2019-04-29T20:13:31.624Z,33.47
2019-04-29T20:16:43.419Z,34.77
2019-04-29T20:19:50.747Z,31.47
2019-04-29T20:22:52.966Z,35.93
2019-04-29T20:26:12.880Z,34.70
2019-04-29T20:29:02.349Z,33.43
2019-04-29T20:32:07.414Z,35.17
2019-04-29T20:35:09.175Z,35.30
2019-04-29T20:38:12.454Z,35.13
2019-04-29T20:41:19.549Z,35.67
2019-04-29T20:44:20.246Z,35.67
2019-04-29T20:47:32.725Z,33.40
2019-04-29T20:50:29.326Z,32.93
2019-04-29T20:53:37.172Z,29.33
2019-04-29T20:56:37.982Z,29.73
2019-04-29T20:59:42.082Z,30.03
2019-04-29T21:02:45.712Z,26.80
2019-04-29T21:05:50.217Z,28.63
2019-04-29T21:08:52.457Z,28.07
2019-04-29T21:12:00.011Z,27.90
2019-04-29T21:15:09.327Z,28.30
2019-04-29T21:18:10.405Z,27.90
2019-04-29T21:21:15.219Z,27.87
2019-04-29T21:24:18.717Z,29.33
2019-04-29T21:27:22.499Z,31.37
2019-04-29T21:30:34.902Z,33.90
2019-04-29T21:33:31.218Z,35.57
2019-04-29T21:36:39.202Z,37.90
2019-04-29T21:39:44.678Z,40.23
2019-04-29T21:42:51.529Z,46.37
2019-04-29T21:45:53.381Z,45.50
2019-04-29T21:48:55.681Z,46.20
2019-04-29T21:51:57.874Z,47.00
2019-04-29T21:54:59.823Z,52.80
2019-04-29T21:58:01.778Z,49.77
2019-04-29T22:01:05.676Z,51.77
2019-04-29T22:04:08.175Z,53.23
2019-04-29T22:07:11.742Z,55.60
2019-04-29T22:10:15.224Z,55.20
2019-04-29T22:13:17.590Z,54.90
2019-04-29T22:16:19.685Z,55.27
2019-04-29T22:19:26.218Z,53.17
2019-04-29T22:22:26.685Z,54.13
2019-04-29T22:25:28.625Z,55.20
2019-04-29T22:28:30.556Z,57.33
2019-04-29T22:31:34.270Z,55.50
2019-04-29T22:34:36.542Z,58.57
2019-04-29T22:37:38.509Z,56.93
2019-04-29T22:40:42.959Z,57.03
2019-04-29T22:43:46.680Z,59.00
2019-04-29T22:46:48.672Z,54.10
2019-04-29T22:49:50.551Z,58.73
2019-04-29T22:52:55.384Z,59.10
2019-04-29T22:55:56.638Z,58.53
2019-04-29T22:58:58.696Z,56.83
2019-04-29T23:02:00.656Z,56.67
2019-04-29T23:05:04.184Z,60.30
2019-04-29T23:08:06.156Z,58.27
2019-04-29T23:11:08.012Z,57.17
2019-04-29T23:14:10.276Z,62.57
2019-04-29T23:17:13.429Z,57.30
2019-04-29T23:20:29.541Z,58.80
2019-04-29T23:23:37.906Z,59.27
2019-04-29T23:26:40.895Z,58.07
2019-04-29T23:29:43.190Z,59.37
2019-04-29T23:32:47.498Z,66.00
2019-04-29T23:35:48.623Z,63.70
2019-04-29T23:38:50.526Z,61.57
2019-04-29T23:41:52.411Z,64.73
2019-04-29T23:44:55.095Z,62.23
2019-04-29T23:47:58.095Z,65.23
2019-04-29T23:51:00.018Z,59.43
2019-04-29T23:54:07.959Z,62.60
2019-04-29T23:57:08.972Z,61.00
